sensor_id;sensor_type;location;lat;lon;timestamp;P1;durP1;ratioP1;P2;durP2;ratioP2
22129;SDS011;11231;50.746;4.272;2023-04-24T00:01:28;23.20;;;12.63;;
22129;SDS011;11231;50.746;4.272;2023-04-24T00:03:56;23.03;;;12.90;;
22129;SDS011;11231;50.746;4.272;2023-04-24T00:06:25;28.47;;;13.50;;
22129;SDS011;11231;50.746;4.272;2023-04-24T00:08:59;28.03;;;13.00;;
22129;SDS011;11231;50.746;4.272;2023-04-24T00:11:25;23.93;;;12.67;;
22129;SDS011;11231;50.746;4.272;2023-04-24T00:13:52;25.50;;;13.07;;
22129;SDS011;11231;50.746;4.272;2023-04-24T00:16:18;26.17;;;13.17;;
22129;SDS011;11231;50.746;4.272;2023-04-24T00:18:44;30.70;;;14.37;;
22129;SDS011;11231;50.746;4.272;2023-04-24T00:21:10;24.97;;;13.20;;
22129;SDS011;11231;50.746;4.272;2023-04-24T00:23:36;25.37;;;13.00;;
22129;SDS011;11231;50.746;4.272;2023-04-24T00:26:02;30.57;;;13.83;;
22129;SDS011;11231;50.746;4.272;2023-04-24T00:28:27;21.00;;;13.27;;
22129;SDS011;11231;50.746;4.272;2023-04-24T00:30:53;28.10;;;13.67;;
22129;SDS011;11231;50.746;4.272;2023-04-24T00:33:19;26.23;;;14.13;;
22129;SDS011;11231;50.746;4.272;2023-04-24T00:35:45;31.13;;;14.07;;
22129;SDS011;11231;50.746;4.272;2023-04-24T00:38:11;29.43;;;14.57;;
22129;SDS011;11231;50.746;4.272;2023-04-24T00:40:37;26.97;;;14.00;;
22129;SDS011;11231;50.746;4.272;2023-04-24T00:43:02;31.23;;;14.70;;
22129;SDS011;11231;50.746;4.272;2023-04-24T00:45:29;25.40;;;13.63;;
22129;SDS011;11231;50.746;4.272;2023-04-24T00:47:56;22.63;;;12.87;;
22129;SDS011;11231;50.746;4.272;2023-04-24T00:50:22;25.30;;;14.53;;
22129;SDS011;11231;50.746;4.272;2023-04-24T00:52:50;26.20;;;14.60;;
22129;SDS011;11231;50.746;4.272;2023-04-24T00:55:16;26.10;;;15.23;;
22129;SDS011;11231;50.746;4.272;2023-04-24T00:57:42;32.47;;;16.23;;
22129;SDS011;11231;50.746;4.272;2023-04-24T01:00:09;30.37;;;15.50;;
22129;SDS011;11231;50.746;4.272;2023-04-24T01:02:39;31.30;;;16.63;;
22129;SDS011;11231;50.746;4.272;2023-04-24T01:05:09;33.50;;;17.27;;
22129;SDS011;11231;50.746;4.272;2023-04-24T01:07:34;28.50;;;15.60;;
22129;SDS011;11231;50.746;4.272;2023-04-24T01:10:01;28.80;;;15.73;;
22129;SDS011;11231;50.746;4.272;2023-04-24T01:12:27;31.97;;;16.43;;
22129;SDS011;11231;50.746;4.272;2023-04-24T01:14:54;32.23;;;16.20;;
22129;SDS011;11231;50.746;4.272;2023-04-24T01:17:20;29.23;;;16.33;;
22129;SDS011;11231;50.746;4.272;2023-04-24T01:19:46;30.00;;;16.00;;
22129;SDS011;11231;50.746;4.272;2023-04-24T01:22:15;32.67;;;16.47;;
22129;SDS011;11231;50.746;4.272;2023-04-24T01:24:42;32.60;;;16.33;;
22129;SDS011;11231;50.746;4.272;2023-04-24T01:27:10;33.97;;;16.53;;
22129;SDS011;11231;50.746;4.272;2023-04-24T01:29:36;29.87;;;16.80;;
22129;SDS011;11231;50.746;4.272;2023-04-24T01:32:03;27.73;;;17.57;;
22129;SDS011;11231;50.746;4.272;2023-04-24T01:34:30;33.53;;;18.37;;
22129;SDS011;11231;50.746;4.272;2023-04-24T01:36:56;33.80;;;17.47;;
22129;SDS011;11231;50.746;4.272;2023-04-24T01:39:22;33.07;;;17.97;;
22129;SDS011;11231;50.746;4.272;2023-04-24T01:41:52;30.07;;;17.63;;
22129;SDS011;11231;50.746;4.272;2023-04-24T01:44:18;31.30;;;18.30;;
22129;SDS011;11231;50.746;4.272;2023-04-24T01:46:44;33.40;;;17.47;;
22129;SDS011;11231;50.746;4.272;2023-04-24T01:49:10;35.33;;;17.93;;
22129;SDS011;11231;50.746;4.272;2023-04-24T01:51:37;33.83;;;18.67;;
22129;SDS011;11231;50.746;4.272;2023-04-24T01:54:03;31.77;;;18.30;;
22129;SDS011;11231;50.746;4.272;2023-04-24T01:56:30;32.83;;;19.83;;
22129;SDS011;11231;50.746;4.272;2023-04-24T01:58:59;33.93;;;18.50;;
22129;SDS011;11231;50.746;4.272;2023-04-24T02:01:25;31.63;;;19.40;;
22129;SDS011;11231;50.746;4.272;2023-04-24T02:03:51;31.63;;;18.80;;
22129;SDS011;11231;50.746;4.272;2023-04-24T02:06:17;34.97;;;20.07;;
22129;SDS011;11231;50.746;4.272;2023-04-24T02:08:43;36.07;;;19.87;;
22129;SDS011;11231;50.746;4.272;2023-04-24T02:11:09;33.07;;;19.50;;
22129;SDS011;11231;50.746;4.272;2023-04-24T02:13:35;34.00;;;18.83;;
22129;SDS011;11231;50.746;4.272;2023-04-24T02:16:01;35.17;;;19.07;;
22129;SDS011;11231;50.746;4.272;2023-04-24T02:18:29;34.43;;;18.90;;
22129;SDS011;11231;50.746;4.272;2023-04-24T02:20:56;35.60;;;18.87;;
22129;SDS011;11231;50.746;4.272;2023-04-24T02:23:21;30.47;;;17.50;;
22129;SDS011;11231;50.746;4.272;2023-04-24T02:25:47;31.77;;;17.57;;
22129;SDS011;11231;50.746;4.272;2023-04-24T02:28:13;33.03;;;17.83;;
22129;SDS011;11231;50.746;4.272;2023-04-24T02:30:39;27.53;;;16.83;;
22129;SDS011;11231;50.746;4.272;2023-04-24T02:33:05;31.90;;;17.23;;
22129;SDS011;11231;50.746;4.272;2023-04-24T02:35:31;32.47;;;17.43;;
22129;SDS011;11231;50.746;4.272;2023-04-24T02:37:57;24.83;;;15.77;;
22129;SDS011;11231;50.746;4.272;2023-04-24T02:40:22;30.77;;;16.90;;
22129;SDS011;11231;50.746;4.272;2023-04-24T02:42:48;26.53;;;15.50;;
22129;SDS011;11231;50.746;4.272;2023-04-24T02:45:14;28.03;;;16.00;;
22129;SDS011;11231;50.746;4.272;2023-04-24T02:47:41;25.23;;;14.27;;
22129;SDS011;11231;50.746;4.272;2023-04-24T02:50:07;26.67;;;14.63;;
22129;SDS011;11231;50.746;4.272;2023-04-24T02:52:33;30.27;;;15.30;;
22129;SDS011;11231;50.746;4.272;2023-04-24T02:54:58;27.63;;;13.93;;
22129;SDS011;11231;50.746;4.272;2023-04-24T02:57:24;25.37;;;14.57;;
22129;SDS011;11231;50.746;4.272;2023-04-24T02:59:50;24.83;;;14.43;;
22129;SDS011;11231;50.746;4.272;2023-04-24T03:02:16;26.77;;;13.40;;
22129;SDS011;11231;50.746;4.272;2023-04-24T03:04:41;27.87;;;13.73;;
22129;SDS011;11231;50.746;4.272;2023-04-24T03:07:08;24.57;;;13.93;;
22129;SDS011;11231;50.746;4.272;2023-04-24T03:09:36;26.67;;;14.13;;
22129;SDS011;11231;50.746;4.272;2023-04-24T03:12:01;29.43;;;14.57;;
22129;SDS011;11231;50.746;4.272;2023-04-24T03:14:27;27.40;;;14.60;;
22129;SDS011;11231;50.746;4.272;2023-04-24T03:16:56;25.97;;;15.63;;
22129;SDS011;11231;50.746;4.272;2023-04-24T03:19:22;28.60;;;16.67;;
22129;SDS011;11231;50.746;4.272;2023-04-24T03:21:57;30.10;;;16.67;;
22129;SDS011;11231;50.746;4.272;2023-04-24T03:24:23;27.17;;;15.63;;
22129;SDS011;11231;50.746;4.272;2023-04-24T03:26:49;28.50;;;16.43;;
22129;SDS011;11231;50.746;4.272;2023-04-24T03:29:43;29.07;;;17.00;;
22129;SDS011;11231;50.746;4.272;2023-04-24T03:32:10;29.97;;;16.53;;
22129;SDS011;11231;50.746;4.272;2023-04-24T03:34:37;27.73;;;16.57;;
22129;SDS011;11231;50.746;4.272;2023-04-24T03:37:03;24.83;;;14.37;;
22129;SDS011;11231;50.746;4.272;2023-04-24T03:39:31;26.90;;;15.27;;
22129;SDS011;11231;50.746;4.272;2023-04-24T03:41:56;26.77;;;15.17;;
22129;SDS011;11231;50.746;4.272;2023-04-24T03:44:31;24.87;;;14.43;;
22129;SDS011;11231;50.746;4.272;2023-04-24T03:46:57;24.43;;;14.60;;
22129;SDS011;11231;50.746;4.272;2023-04-24T03:49:25;25.87;;;15.67;;
22129;SDS011;11231;50.746;4.272;2023-04-24T03:51:51;24.37;;;15.07;;
22129;SDS011;11231;50.746;4.272;2023-04-24T03:54:22;26.97;;;15.20;;
22129;SDS011;11231;50.746;4.272;2023-04-24T03:56:50;22.83;;;14.77;;
22129;SDS011;11231;50.746;4.272;2023-04-24T03:59:16;21.47;;;12.00;;
22129;SDS011;11231;50.746;4.272;2023-04-24T04:01:46;22.80;;;12.63;;
22129;SDS011;11231;50.746;4.272;2023-04-24T04:04:15;20.80;;;11.57;;
22129;SDS011;11231;50.746;4.272;2023-04-24T04:06:42;21.73;;;11.77;;
22129;SDS011;11231;50.746;4.272;2023-04-24T04:09:09;19.50;;;11.67;;
22129;SDS011;11231;50.746;4.272;2023-04-24T04:11:35;23.23;;;12.40;;
22129;SDS011;11231;50.746;4.272;2023-04-24T04:14:01;24.20;;;11.87;;
22129;SDS011;11231;50.746;4.272;2023-04-24T04:16:29;22.23;;;12.00;;
22129;SDS011;11231;50.746;4.272;2023-04-24T04:19:00;20.60;;;11.80;;
22129;SDS011;11231;50.746;4.272;2023-04-24T04:21:28;21.10;;;12.17;;
22129;SDS011;11231;50.746;4.272;2023-04-24T04:24:03;18.97;;;11.77;;
22129;SDS011;11231;50.746;4.272;2023-04-24T04:26:35;18.00;;;11.10;;
22129;SDS011;11231;50.746;4.272;2023-04-24T04:29:05;17.83;;;10.43;;
22129;SDS011;11231;50.746;4.272;2023-04-24T04:31:33;17.80;;;10.63;;
22129;SDS011;11231;50.746;4.272;2023-04-24T04:34:04;17.43;;;9.80;;
22129;SDS011;11231;50.746;4.272;2023-04-24T04:36:32;17.20;;;9.53;;
22129;SDS011;11231;50.746;4.272;2023-04-24T04:39:13;15.63;;;9.27;;
22129;SDS011;11231;50.746;4.272;2023-04-24T04:41:51;18.47;;;9.20;;
22129;SDS011;11231;50.746;4.272;2023-04-24T04:44:20;16.70;;;9.17;;
22129;SDS011;11231;50.746;4.272;2023-04-24T04:46:46;18.03;;;10.50;;
22129;SDS011;11231;50.746;4.272;2023-04-24T04:49:21;17.60;;;9.97;;
22129;SDS011;11231;50.746;4.272;2023-04-24T04:51:49;29.17;;;11.77;;
22129;SDS011;11231;50.746;4.272;2023-04-24T04:54:16;18.40;;;11.17;;
22129;SDS011;11231;50.746;4.272;2023-04-24T04:56:42;21.37;;;11.47;;
22129;SDS011;11231;50.746;4.272;2023-04-24T04:59:08;21.40;;;11.87;;
22129;SDS011;11231;50.746;4.272;2023-04-24T05:01:37;22.20;;;12.23;;
22129;SDS011;11231;50.746;4.272;2023-04-24T05:04:05;19.83;;;11.67;;
22129;SDS011;11231;50.746;4.272;2023-04-24T05:06:31;27.37;;;12.43;;
22129;SDS011;11231;50.746;4.272;2023-04-24T05:08:57;25.83;;;13.70;;
22129;SDS011;11231;50.746;4.272;2023-04-24T05:11:30;22.70;;;13.00;;
22129;SDS011;11231;50.746;4.272;2023-04-24T05:13:58;27.63;;;14.93;;
22129;SDS011;11231;50.746;4.272;2023-04-24T05:16:32;24.00;;;14.67;;
22129;SDS011;11231;50.746;4.272;2023-04-24T05:18:58;24.50;;;12.67;;
22129;SDS011;11231;50.746;4.272;2023-04-24T05:21:29;27.20;;;14.37;;
22129;SDS011;11231;50.746;4.272;2023-04-24T05:23:54;28.87;;;14.37;;
22129;SDS011;11231;50.746;4.272;2023-04-24T05:26:39;29.70;;;15.03;;
22129;SDS011;11231;50.746;4.272;2023-04-24T05:29:06;25.00;;;14.40;;
22129;SDS011;11231;50.746;4.272;2023-04-24T05:31:32;27.03;;;14.90;;
22129;SDS011;11231;50.746;4.272;2023-04-24T05:33:58;23.73;;;14.67;;
22129;SDS011;11231;50.746;4.272;2023-04-24T05:36:24;26.03;;;13.93;;
22129;SDS011;11231;50.746;4.272;2023-04-24T05:38:52;26.20;;;14.30;;
22129;SDS011;11231;50.746;4.272;2023-04-24T05:41:19;29.27;;;15.27;;
22129;SDS011;11231;50.746;4.272;2023-04-24T05:43:44;26.80;;;14.93;;
22129;SDS011;11231;50.746;4.272;2023-04-24T05:46:11;26.57;;;14.13;;
22129;SDS011;11231;50.746;4.272;2023-04-24T05:48:38;27.90;;;14.53;;
22129;SDS011;11231;50.746;4.272;2023-04-24T05:51:04;28.63;;;14.30;;
22129;SDS011;11231;50.746;4.272;2023-04-24T05:53:30;24.23;;;13.73;;
22129;SDS011;11231;50.746;4.272;2023-04-24T05:55:56;25.20;;;14.33;;
22129;SDS011;11231;50.746;4.272;2023-04-24T05:58:22;26.77;;;13.73;;
22129;SDS011;11231;50.746;4.272;2023-04-24T06:00:48;28.33;;;13.93;;
22129;SDS011;11231;50.746;4.272;2023-04-24T06:03:15;25.47;;;14.73;;
22129;SDS011;11231;50.746;4.272;2023-04-24T06:05:41;25.40;;;13.87;;
22129;SDS011;11231;50.746;4.272;2023-04-24T06:08:07;26.43;;;13.87;;
22129;SDS011;11231;50.746;4.272;2023-04-24T06:10:37;28.73;;;14.87;;
22129;SDS011;11231;50.746;4.272;2023-04-24T06:13:05;34.37;;;15.97;;
22129;SDS011;11231;50.746;4.272;2023-04-24T06:15:35;31.27;;;15.80;;
22129;SDS011;11231;50.746;4.272;2023-04-24T06:18:07;26.00;;;14.00;;
22129;SDS011;11231;50.746;4.272;2023-04-24T06:20:34;32.20;;;17.43;;
22129;SDS011;11231;50.746;4.272;2023-04-24T06:23:01;30.80;;;16.77;;
22129;SDS011;11231;50.746;4.272;2023-04-24T06:25:27;32.73;;;17.77;;
22129;SDS011;11231;50.746;4.272;2023-04-24T06:27:56;34.90;;;18.37;;
22129;SDS011;11231;50.746;4.272;2023-04-24T06:30:22;29.57;;;18.97;;
22129;SDS011;11231;50.746;4.272;2023-04-24T06:32:48;35.67;;;19.10;;
22129;SDS011;11231;50.746;4.272;2023-04-24T06:35:14;39.60;;;19.03;;
22129;SDS011;11231;50.746;4.272;2023-04-24T06:37:41;34.77;;;19.00;;
22129;SDS011;11231;50.746;4.272;2023-04-24T06:40:08;37.10;;;19.83;;
22129;SDS011;11231;50.746;4.272;2023-04-24T06:42:35;41.43;;;19.90;;
22129;SDS011;11231;50.746;4.272;2023-04-24T06:45:02;29.47;;;17.87;;
22129;SDS011;11231;50.746;4.272;2023-04-24T06:47:29;37.33;;;20.03;;
22129;SDS011;11231;50.746;4.272;2023-04-24T06:49:55;33.87;;;19.33;;
22129;SDS011;11231;50.746;4.272;2023-04-24T06:52:21;32.40;;;18.93;;
22129;SDS011;11231;50.746;4.272;2023-04-24T06:54:46;39.67;;;18.97;;
22129;SDS011;11231;50.746;4.272;2023-04-24T06:57:12;33.70;;;19.33;;
22129;SDS011;11231;50.746;4.272;2023-04-24T06:59:38;36.10;;;18.67;;
22129;SDS011;11231;50.746;4.272;2023-04-24T07:02:04;37.57;;;19.60;;
22129;SDS011;11231;50.746;4.272;2023-04-24T07:04:30;34.23;;;17.97;;
22129;SDS011;11231;50.746;4.272;2023-04-24T07:06:56;30.50;;;17.77;;
22129;SDS011;11231;50.746;4.272;2023-04-24T07:09:23;32.47;;;18.03;;
22129;SDS011;11231;50.746;4.272;2023-04-24T07:11:50;35.13;;;17.87;;
22129;SDS011;11231;50.746;4.272;2023-04-24T07:14:18;30.33;;;16.73;;
22129;SDS011;11231;50.746;4.272;2023-04-24T07:16:44;32.20;;;17.47;;
22129;SDS011;11231;50.746;4.272;2023-04-24T07:19:11;30.20;;;15.87;;
22129;SDS011;11231;50.746;4.272;2023-04-24T07:21:37;34.03;;;17.00;;
22129;SDS011;11231;50.746;4.272;2023-04-24T07:24:03;31.70;;;16.63;;
22129;SDS011;11231;50.746;4.272;2023-04-24T07:26:29;31.43;;;16.77;;
22129;SDS011;11231;50.746;4.272;2023-04-24T07:28:56;34.50;;;16.83;;
22129;SDS011;11231;50.746;4.272;2023-04-24T07:31:22;30.63;;;15.43;;
22129;SDS011;11231;50.746;4.272;2023-04-24T07:33:49;25.83;;;15.50;;
22129;SDS011;11231;50.746;4.272;2023-04-24T07:36:15;28.63;;;15.63;;
22129;SDS011;11231;50.746;4.272;2023-04-24T07:38:47;34.03;;;15.57;;
22129;SDS011;11231;50.746;4.272;2023-04-24T07:41:13;30.10;;;14.13;;
22129;SDS011;11231;50.746;4.272;2023-04-24T07:43:40;26.57;;;15.00;;
22129;SDS011;11231;50.746;4.272;2023-04-24T07:46:06;30.60;;;14.47;;
22129;SDS011;11231;50.746;4.272;2023-04-24T07:48:32;33.63;;;15.33;;
22129;SDS011;11231;50.746;4.272;2023-04-24T07:50:58;25.60;;;14.63;;
22129;SDS011;11231;50.746;4.272;2023-04-24T07:53:24;28.77;;;15.77;;
22129;SDS011;11231;50.746;4.272;2023-04-24T07:55:50;27.10;;;15.63;;
22129;SDS011;11231;50.746;4.272;2023-04-24T07:58:15;23.27;;;14.13;;
22129;SDS011;11231;50.746;4.272;2023-04-24T08:00:41;30.53;;;16.07;;
22129;SDS011;11231;50.746;4.272;2023-04-24T08:03:07;32.67;;;15.70;;
22129;SDS011;11231;50.746;4.272;2023-04-24T08:05:33;33.93;;;16.23;;
22129;SDS011;11231;50.746;4.272;2023-04-24T08:07:58;31.93;;;16.00;;
22129;SDS011;11231;50.746;4.272;2023-04-24T08:10:24;29.83;;;16.10;;
22129;SDS011;11231;50.746;4.272;2023-04-24T08:12:51;30.67;;;15.63;;
22129;SDS011;11231;50.746;4.272;2023-04-24T08:15:16;25.73;;;13.03;;
22129;SDS011;11231;50.746;4.272;2023-04-24T08:17:42;19.83;;;12.03;;
22129;SDS011;11231;50.746;4.272;2023-04-24T08:20:08;23.67;;;12.40;;
22129;SDS011;11231;50.746;4.272;2023-04-24T08:22:39;22.20;;;11.70;;
22129;SDS011;11231;50.746;4.272;2023-04-24T08:25:05;22.97;;;11.67;;
22129;SDS011;11231;50.746;4.272;2023-04-24T08:27:32;24.77;;;11.57;;
22129;SDS011;11231;50.746;4.272;2023-04-24T08:29:57;19.83;;;10.50;;
22129;SDS011;11231;50.746;4.272;2023-04-24T08:32:26;22.53;;;10.23;;
22129;SDS011;11231;50.746;4.272;2023-04-24T08:34:55;22.90;;;10.57;;
22129;SDS011;11231;50.746;4.272;2023-04-24T08:37:22;19.73;;;9.90;;
22129;SDS011;11231;50.746;4.272;2023-04-24T08:39:51;19.73;;;8.40;;
22129;SDS011;11231;50.746;4.272;2023-04-24T08:42:17;18.67;;;8.63;;
22129;SDS011;11231;50.746;4.272;2023-04-24T08:44:44;18.53;;;7.37;;
22129;SDS011;11231;50.746;4.272;2023-04-24T08:47:11;15.17;;;7.20;;
22129;SDS011;11231;50.746;4.272;2023-04-24T08:49:37;17.90;;;7.70;;
22129;SDS011;11231;50.746;4.272;2023-04-24T08:52:04;18.70;;;7.30;;
22129;SDS011;11231;50.746;4.272;2023-04-24T08:54:33;18.40;;;6.67;;
22129;SDS011;11231;50.746;4.272;2023-04-24T08:57:00;18.97;;;7.73;;
22129;SDS011;11231;50.746;4.272;2023-04-24T08:59:28;22.80;;;7.93;;
22129;SDS011;11231;50.746;4.272;2023-04-24T09:01:56;15.17;;;6.27;;
22129;SDS011;11231;50.746;4.272;2023-04-24T09:04:22;18.63;;;6.73;;
22129;SDS011;11231;50.746;4.272;2023-04-24T09:06:57;16.53;;;6.50;;
22129;SDS011;11231;50.746;4.272;2023-04-24T09:09:24;17.43;;;6.40;;
22129;SDS011;11231;50.746;4.272;2023-04-24T09:11:50;16.77;;;6.67;;
22129;SDS011;11231;50.746;4.272;2023-04-24T09:14:19;14.37;;;6.27;;
22129;SDS011;11231;50.746;4.272;2023-04-24T09:16:45;17.40;;;6.40;;
22129;SDS011;11231;50.746;4.272;2023-04-24T09:19:12;15.37;;;6.40;;
22129;SDS011;11231;50.746;4.272;2023-04-24T09:21:38;14.27;;;5.93;;
22129;SDS011;11231;50.746;4.272;2023-04-24T09:24:06;14.97;;;6.43;;
22129;SDS011;11231;50.746;4.272;2023-04-24T09:26:34;16.50;;;6.53;;
22129;SDS011;11231;50.746;4.272;2023-04-24T09:29:01;20.07;;;7.53;;
22129;SDS011;11231;50.746;4.272;2023-04-24T09:31:28;17.97;;;7.10;;
22129;SDS011;11231;50.746;4.272;2023-04-24T09:34:02;16.43;;;7.27;;
22129;SDS011;11231;50.746;4.272;2023-04-24T09:36:33;17.43;;;6.87;;
22129;SDS011;11231;50.746;4.272;2023-04-24T09:39:04;14.23;;;6.13;;
22129;SDS011;11231;50.746;4.272;2023-04-24T09:41:32;15.40;;;5.20;;
22129;SDS011;11231;50.746;4.272;2023-04-24T09:44:09;14.97;;;5.23;;
22129;SDS011;11231;50.746;4.272;2023-04-24T09:46:41;19.57;;;5.30;;
22129;SDS011;11231;50.746;4.272;2023-04-24T09:49:13;13.97;;;4.77;;
22129;SDS011;11231;50.746;4.272;2023-04-24T09:51:42;12.13;;;5.03;;
22129;SDS011;11231;50.746;4.272;2023-04-24T09:54:25;12.90;;;5.10;;
22129;SDS011;11231;50.746;4.272;2023-04-24T09:56:51;12.17;;;5.17;;
22129;SDS011;11231;50.746;4.272;2023-04-24T09:59:18;11.90;;;4.87;;
22129;SDS011;11231;50.746;4.272;2023-04-24T10:01:45;12.67;;;5.33;;
22129;SDS011;11231;50.746;4.272;2023-04-24T10:04:23;16.43;;;5.33;;
22129;SDS011;11231;50.746;4.272;2023-04-24T10:06:51;13.63;;;5.03;;
22129;SDS011;11231;50.746;4.272;2023-04-24T10:09:18;15.10;;;5.63;;
22129;SDS011;11231;50.746;4.272;2023-04-24T10:11:46;9.90;;;4.93;;
22129;SDS011;11231;50.746;4.272;2023-04-24T10:14:15;16.80;;;5.23;;
22129;SDS011;11231;50.746;4.272;2023-04-24T10:16:43;14.43;;;5.73;;
22129;SDS011;11231;50.746;4.272;2023-04-24T10:19:09;11.00;;;5.37;;
22129;SDS011;11231;50.746;4.272;2023-04-24T10:21:38;14.37;;;5.63;;
22129;SDS011;11231;50.746;4.272;2023-04-24T10:24:10;16.33;;;6.13;;
22129;SDS011;11231;50.746;4.272;2023-04-24T10:26:37;13.27;;;5.60;;
22129;SDS011;11231;50.746;4.272;2023-04-24T10:29:05;13.83;;;5.43;;
22129;SDS011;11231;50.746;4.272;2023-04-24T10:31:35;14.67;;;6.40;;
22129;SDS011;11231;50.746;4.272;2023-04-24T10:34:02;14.10;;;5.73;;
22129;SDS011;11231;50.746;4.272;2023-04-24T10:36:29;12.97;;;5.67;;
22129;SDS011;11231;50.746;4.272;2023-04-24T10:38:57;15.60;;;5.87;;
22129;SDS011;11231;50.746;4.272;2023-04-24T10:41:25;13.03;;;5.90;;
22129;SDS011;11231;50.746;4.272;2023-04-24T10:44:07;16.50;;;6.97;;
22129;SDS011;11231;50.746;4.272;2023-04-24T10:46:35;14.80;;;7.00;;
22129;SDS011;11231;50.746;4.272;2023-04-24T10:49:07;16.13;;;7.77;;
22129;SDS011;11231;50.746;4.272;2023-04-24T10:51:49;15.37;;;7.37;;
22129;SDS011;11231;50.746;4.272;2023-04-24T10:59:48;18.10;;;8.70;;
22129;SDS011;11231;50.746;4.272;2023-04-24T11:02:16;18.47;;;9.43;;
22129;SDS011;11231;50.746;4.272;2023-04-24T11:04:45;18.87;;;9.17;;
22129;SDS011;11231;50.746;4.272;2023-04-24T11:07:11;17.13;;;9.30;;
22129;SDS011;11231;50.746;4.272;2023-04-24T11:09:37;17.87;;;9.13;;
22129;SDS011;11231;50.746;4.272;2023-04-24T11:12:06;15.87;;;8.70;;
22129;SDS011;11231;50.746;4.272;2023-04-24T11:15:20;16.93;;;8.93;;
22129;SDS011;11231;50.746;4.272;2023-04-24T11:17:31;16.13;;;8.73;;
22129;SDS011;11231;50.746;4.272;2023-04-24T11:20:02;17.00;;;9.60;;
22129;SDS011;11231;50.746;4.272;2023-04-24T11:22:35;16.20;;;9.30;;
22129;SDS011;11231;50.746;4.272;2023-04-24T11:25:02;18.13;;;9.27;;
22129;SDS011;11231;50.746;4.272;2023-04-24T11:27:31;14.73;;;9.20;;
22129;SDS011;11231;50.746;4.272;2023-04-24T11:30:04;19.13;;;9.00;;
22129;SDS011;11231;50.746;4.272;2023-04-24T11:37:42;13.10;;;9.00;;
22129;SDS011;11231;50.746;4.272;2023-04-24T11:40:12;19.47;;;9.77;;
22129;SDS011;11231;50.746;4.272;2023-04-24T11:42:41;18.37;;;10.00;;
22129;SDS011;11231;50.746;4.272;2023-04-24T11:45:11;18.27;;;10.57;;
22129;SDS011;11231;50.746;4.272;2023-04-24T11:47:42;18.30;;;9.60;;
22129;SDS011;11231;50.746;4.272;2023-04-24T11:50:10;16.20;;;9.67;;
22129;SDS011;11231;50.746;4.272;2023-04-24T11:52:38;14.30;;;9.53;;
22129;SDS011;11231;50.746;4.272;2023-04-24T11:55:24;17.60;;;9.87;;
22129;SDS011;11231;50.746;4.272;2023-04-24T11:57:56;13.87;;;9.70;;
22129;SDS011;11231;50.746;4.272;2023-04-24T12:02:50;17.07;;;9.47;;
22129;SDS011;11231;50.746;4.272;2023-04-24T12:05:20;15.30;;;8.73;;
22129;SDS011;11231;50.746;4.272;2023-04-24T12:07:46;17.83;;;9.23;;
22129;SDS011;11231;50.746;4.272;2023-04-24T12:10:11;19.20;;;8.97;;
22129;SDS011;11231;50.746;4.272;2023-04-24T12:12:37;15.63;;;8.83;;
22129;SDS011;11231;50.746;4.272;2023-04-24T12:15:06;14.00;;;8.00;;
22129;SDS011;11231;50.746;4.272;2023-04-24T12:17:34;14.23;;;8.47;;
22129;SDS011;11231;50.746;4.272;2023-04-24T12:20:05;15.53;;;8.80;;
22129;SDS011;11231;50.746;4.272;2023-04-24T12:22:51;15.63;;;8.13;;
22129;SDS011;11231;50.746;4.272;2023-04-24T12:25:22;15.90;;;7.63;;
22129;SDS011;11231;50.746;4.272;2023-04-24T12:28:10;15.57;;;7.93;;
22129;SDS011;11231;50.746;4.272;2023-04-24T12:30:45;16.13;;;8.37;;
22129;SDS011;11231;50.746;4.272;2023-04-24T12:33:17;16.17;;;8.77;;
22129;SDS011;11231;50.746;4.272;2023-04-24T12:35:44;17.17;;;8.67;;
22129;SDS011;11231;50.746;4.272;2023-04-24T12:38:16;15.93;;;8.43;;
22129;SDS011;11231;50.746;4.272;2023-04-24T12:40:46;15.77;;;8.90;;
22129;SDS011;11231;50.746;4.272;2023-04-24T12:43:13;14.40;;;8.20;;
22129;SDS011;11231;50.746;4.272;2023-04-24T12:45:42;16.70;;;7.70;;
22129;SDS011;11231;50.746;4.272;2023-04-24T12:48:10;14.17;;;7.30;;
22129;SDS011;11231;50.746;4.272;2023-04-24T12:50:36;13.60;;;6.70;;
22129;SDS011;11231;50.746;4.272;2023-04-24T12:53:03;13.93;;;7.23;;
22129;SDS011;11231;50.746;4.272;2023-04-24T12:55:28;13.67;;;7.77;;
22129;SDS011;11231;50.746;4.272;2023-04-24T12:57:54;17.30;;;8.80;;
22129;SDS011;11231;50.746;4.272;2023-04-24T13:00:21;15.03;;;9.13;;
22129;SDS011;11231;50.746;4.272;2023-04-24T13:02:47;14.47;;;8.63;;
22129;SDS011;11231;50.746;4.272;2023-04-24T13:05:13;18.10;;;8.83;;
22129;SDS011;11231;50.746;4.272;2023-04-24T13:07:39;16.50;;;8.77;;
22129;SDS011;11231;50.746;4.272;2023-04-24T13:10:05;13.77;;;8.50;;
22129;SDS011;11231;50.746;4.272;2023-04-24T13:12:31;15.97;;;8.83;;
22129;SDS011;11231;50.746;4.272;2023-04-24T13:14:57;16.03;;;9.17;;
22129;SDS011;11231;50.746;4.272;2023-04-24T13:17:23;14.97;;;7.80;;
22129;SDS011;11231;50.746;4.272;2023-04-24T13:19:50;13.20;;;7.10;;
22129;SDS011;11231;50.746;4.272;2023-04-24T13:22:16;13.67;;;7.40;;
22129;SDS011;11231;50.746;4.272;2023-04-24T13:24:45;15.77;;;7.30;;
22129;SDS011;11231;50.746;4.272;2023-04-24T13:27:13;12.00;;;6.53;;
22129;SDS011;11231;50.746;4.272;2023-04-24T13:29:40;12.03;;;6.90;;
22129;SDS011;11231;50.746;4.272;2023-04-24T13:32:06;11.20;;;7.00;;
22129;SDS011;11231;50.746;4.272;2023-04-24T13:34:33;11.93;;;6.60;;
22129;SDS011;11231;50.746;4.272;2023-04-24T13:37:00;14.03;;;6.10;;
22129;SDS011;11231;50.746;4.272;2023-04-24T13:39:26;14.47;;;6.60;;
22129;SDS011;11231;50.746;4.272;2023-04-24T13:41:52;12.87;;;6.47;;
22129;SDS011;11231;50.746;4.272;2023-04-24T13:44:19;13.40;;;6.27;;
22129;SDS011;11231;50.746;4.272;2023-04-24T13:46:46;10.80;;;5.20;;
22129;SDS011;11231;50.746;4.272;2023-04-24T13:49:13;12.40;;;5.80;;
22129;SDS011;11231;50.746;4.272;2023-04-24T13:51:40;10.40;;;4.93;;
22129;SDS011;11231;50.746;4.272;2023-04-24T13:54:07;8.90;;;4.67;;
22129;SDS011;11231;50.746;4.272;2023-04-24T13:56:33;9.87;;;4.80;;
22129;SDS011;11231;50.746;4.272;2023-04-24T13:58:59;14.40;;;5.00;;
22129;SDS011;11231;50.746;4.272;2023-04-24T14:01:25;12.27;;;4.87;;
22129;SDS011;11231;50.746;4.272;2023-04-24T14:03:55;9.87;;;4.80;;
22129;SDS011;11231;50.746;4.272;2023-04-24T14:06:21;11.10;;;5.10;;
22129;SDS011;11231;50.746;4.272;2023-04-24T14:08:48;14.27;;;5.27;;
22129;SDS011;11231;50.746;4.272;2023-04-24T14:11:15;11.97;;;4.73;;
22129;SDS011;11231;50.746;4.272;2023-04-24T14:13:42;12.90;;;4.67;;
22129;SDS011;11231;50.746;4.272;2023-04-24T14:16:08;9.67;;;3.90;;
22129;SDS011;11231;50.746;4.272;2023-04-24T14:18:35;10.77;;;4.23;;
22129;SDS011;11231;50.746;4.272;2023-04-24T14:21:01;10.53;;;3.93;;
22129;SDS011;11231;50.746;4.272;2023-04-24T14:23:28;10.30;;;4.07;;
22129;SDS011;11231;50.746;4.272;2023-04-24T14:25:54;9.90;;;4.43;;
22129;SDS011;11231;50.746;4.272;2023-04-24T14:28:22;9.37;;;3.60;;
22129;SDS011;11231;50.746;4.272;2023-04-24T14:30:47;7.90;;;3.73;;
22129;SDS011;11231;50.746;4.272;2023-04-24T14:33:13;9.97;;;4.10;;
22129;SDS011;11231;50.746;4.272;2023-04-24T14:35:40;8.90;;;3.60;;
22129;SDS011;11231;50.746;4.272;2023-04-24T14:38:09;7.83;;;3.20;;
22129;SDS011;11231;50.746;4.272;2023-04-24T14:40:35;9.53;;;3.20;;
22129;SDS011;11231;50.746;4.272;2023-04-24T14:43:01;8.60;;;3.13;;
22129;SDS011;11231;50.746;4.272;2023-04-24T14:45:28;7.90;;;3.40;;